Time;durP1;ratioP1;P1;durP2;ratioP2;P2;SDS_P1;SDS_P2;PMS_P1;PMS_P2;Temp;Humidity;BMP_temperature;BMP_pressure;BME280_temperature;BME280_humidity;BME280_pressure;Samples;Min_cycle;Max_cycle;Signal;HPM_P1;HPM_P2
2023/09/23 00:00:29;;;;;;;2.65;0.60;;;22.10;51.40;;;;;;5057885;28;20077;-68
2023/09/23 00:02:57;;;;;;;3.40;0.77;;;21.60;53.90;;;;;;5060903;28;20465;-68
2023/09/23 00:05:26;;;;;;;2.97;0.70;;;22.40;53.10;;;;;;5052677;28;20036;-68
2023/09/23 00:07:53;;;;;;;3.67;0.73;;;23.60;51.60;;;;;;5055722;28;20040;-68
2023/09/23 00:10:21;;;;;;;2.75;0.70;;;24.90;49.60;;;;;;5055799;28;20117;-69
2023/09/23 00:12:48;;;;;;;0.93;0.45;;;25.10;47.50;;;;;;5057845;28;20037;-69
2023/09/23 00:15:16;;;;;;;2.80;0.50;;;25.40;43.50;;;;;;5050207;28;20111;-68
2023/09/23 00:17:45;;;;;;;2.47;0.60;;;25.10;42.50;;;;;;5056867;28;21487;-68
2023/09/23 00:20:15;;;;;;;1.60;0.60;;;25.20;44.70;;;;;;5055315;28;20196;-69
2023/09/23 00:22:47;;;;;;;2.13;0.45;;;25.40;42.90;;;;;;5054487;28;20048;-69
2023/09/23 00:25:18;;;;;;;2.75;0.47;;;24.80;41.90;;;;;;5054632;28;20037;-69
2023/09/23 00:27:46;;;;;;;1.63;0.40;;;24.70;44.00;;;;;;5065952;28;20474;-68
2023/09/23 00:30:14;;;;;;;4.35;0.70;;;25.10;41.10;;;;;;5058680;28;20025;-67
2023/09/23 00:32:44;;;;;;;1.38;0.25;;;24.80;41.20;;;;;;5058306;28;20032;-68
2023/09/23 00:35:12;;;;;;;2.47;0.50;;;25.70;42.40;;;;;;5062937;28;20029;-69
2023/09/23 00:37:43;;;;;;;3.90;0.63;;;25.90;41.50;;;;;;5055257;28;20032;-68
2023/09/23 00:40:27;;;;;;;1.85;0.55;;;25.60;40.80;;;;;;5058799;28;20485;-67
2023/09/23 00:42:57;;;;;;;1.58;0.68;;;24.20;42.30;;;;;;5053595;28;20078;-68
2023/09/23 00:45:25;;;;;;;1.83;0.50;;;22.60;45.70;;;;;;5056628;28;20048;-68
2023/09/23 00:47:53;;;;;;;0.77;0.40;;;22.30;46.40;;;;;;5060331;28;20021;-68
2023/09/23 00:50:22;;;;;;;4.68;0.82;;;22.10;47.50;;;;;;5051243;28;20024;-68
2023/09/23 00:52:53;;;;;;;2.80;0.68;;;22.20;48.60;;;;;;5056520;28;20029;-69
2023/09/23 00:55:22;;;;;;;4.18;0.95;;;22.00;49.40;;;;;;5052262;28;20021;-68
2023/09/23 00:57:53;;;;;;;2.95;0.82;;;21.80;50.40;;;;;;5053752;28;20036;-69
2023/09/23 01:00:28;;;;;;;1.98;0.50;;;21.80;50.40;;;;;;5068713;28;20024;-69
2023/09/23 01:02:59;;;;;;;4.05;1.10;;;21.60;51.20;;;;;;5054114;28;20024;-69
2023/09/23 01:05:28;;;;;;;4.93;0.70;;;21.70;49.90;;;;;;5050697;28;20040;-69
2023/09/23 01:08:04;;;;;;;4.03;0.60;;;21.70;49.80;;;;;;5059135;28;20095;-68
2023/09/23 01:10:32;;;;;;;2.72;0.70;;;22.10;50.00;;;;;;5068651;28;20377;-69
2023/09/23 01:13:00;;;;;;;2.05;0.50;;;23.20;48.10;;;;;;5050023;28;20025;-68
2023/09/23 01:15:30;;;;;;;4.15;0.75;;;24.30;45.40;;;;;;5059123;28;20017;-68
2023/09/23 01:17:58;;;;;;;4.60;0.98;;;24.50;45.00;;;;;;5064933;28;20026;-68
2023/09/23 01:20:25;;;;;;;4.00;0.73;;;24.20;45.80;;;;;;5054778;28;20032;-69
2023/09/23 01:22:57;;;;;;;2.80;0.82;;;24.20;46.10;;;;;;5054879;28;20045;-68
2023/09/23 01:25:25;;;;;;;2.65;0.50;;;24.70;46.10;;;;;;5054842;28;20079;-68
2023/09/23 01:27:55;;;;;;;2.25;0.50;;;24.10;46.00;;;;;;5058610;28;20098;-69
2023/09/23 01:30:24;;;;;;;4.88;0.95;;;23.60;44.30;;;;;;5061375;28;20098;-68
2023/09/23 01:32:52;;;;;;;3.72;0.60;;;23.00;46.10;;;;;;5059791;28;20775;-66
2023/09/23 01:35:22;;;;;;;3.30;0.40;;;22.50;48.10;;;;;;5053787;28;20044;-67
2023/09/23 01:37:50;;;;;;;2.53;0.73;;;22.60;47.70;;;;;;5057894;28;20061;-67
2023/09/23 01:40:17;;;;;;;3.28;0.50;;;22.40;48.90;;;;;;5051838;28;20060;-68
2023/09/23 01:42:48;;;;;;;6.05;0.80;;;22.10;47.70;;;;;;5056884;28;20021;-66
2023/09/23 01:45:16;;;;;;;2.95;0.73;;;21.70;48.00;;;;;;5039190;28;20144;-67
2023/09/23 01:47:44;;;;;;;1.63;0.85;;;21.50;48.90;;;;;;5057084;28;20194;-69
2023/09/23 01:50:13;;;;;;;4.35;0.57;;;21.50;48.70;;;;;;5057699;28;20033;-65
2023/09/23 01:52:41;;;;;;;4.43;0.70;;;21.50;49.10;;;;;;5059986;28;20021;-69
2023/09/23 01:55:10;;;;;;;3.03;0.47;;;21.40;49.50;;;;;;5056465;28;20531;-67
2023/09/23 01:57:41;;;;;;;4.97;0.70;;;21.60;49.10;;;;;;5056274;28;20024;-67
2023/09/23 02:00:12;;;;;;;2.20;0.98;;;21.80;48.50;;;;;;5057365;28;20033;-67
2023/09/23 02:02:40;;;;;;;2.28;0.70;;;21.70;51.10;;;;;;5057812;28;20027;-69
2023/09/23 02:05:08;;;;;;;2.92;0.65;;;21.80;50.10;;;;;;5055688;28;20041;-71
2023/09/23 02:07:36;;;;;;;3.70;0.73;;;21.90;48.30;;;;;;5054308;28;20033;-68
2023/09/23 02:10:04;;;;;;;6.72;0.63;;;22.00;49.60;;;;;;5058127;28;20100;-66
2023/09/23 02:12:33;;;;;;;2.47;0.68;;;22.10;49.00;;;;;;5050575;28;20119;-68
2023/09/23 02:15:01;;;;;;;3.58;0.82;;;22.20;49.20;;;;;;5056903;28;20025;-67
2023/09/23 02:17:28;;;;;;;2.80;0.77;;;22.00;48.00;;;;;;5056003;28;20033;-68
2023/09/23 02:19:57;;;;;;;6.57;0.73;;;21.50;49.20;;;;;;5055307;28;20478;-67
2023/09/23 02:22:25;;;;;;;5.70;1.05;;;21.50;48.70;;;;;;5053447;28;20154;-69
2023/09/23 02:24:54;;;;;;;5.00;0.75;;;21.50;49.10;;;;;;5048495;28;20141;-70
2023/09/23 02:27:21;;;;;;;3.75;1.00;;;21.70;49.50;;;;;;5051845;28;20039;-68
2023/09/23 02:29:49;;;;;;;5.78;0.95;;;22.00;49.30;;;;;;5054637;28;20025;-67
2023/09/23 02:32:16;;;;;;;4.03;0.85;;;22.10;47.60;;;;;;5053804;28;20021;-68
2023/09/23 02:34:45;;;;;;;2.67;0.82;;;22.40;47.70;;;;;;5055159;28;20036;-69
2023/09/23 02:37:12;;;;;;;2.30;0.80;;;22.20;47.30;;;;;;5064530;28;20377;-69
2023/09/23 02:39:41;;;;;;;4.97;1.08;;;22.10;47.80;;;;;;5056130;28;20519;-69
2023/09/23 02:42:10;;;;;;;3.45;1.05;;;22.50;47.70;;;;;;5063407;28;20047;-69
2023/09/23 02:44:38;;;;;;;2.50;1.00;;;23.00;48.50;;;;;;5063212;28;20032;-69
2023/09/23 02:47:05;;;;;;;5.10;1.10;;;23.60;47.80;;;;;;5058213;28;20130;-70
2023/09/23 02:49:33;;;;;;;2.00;0.80;;;23.60;46.90;;;;;;5058605;28;20032;-69
2023/09/23 02:52:00;;;;;;;3.97;0.75;;;23.70;46.80;;;;;;5055088;28;20021;-69
2023/09/23 02:54:27;;;;;;;2.10;0.60;;;23.30;45.30;;;;;;5055113;28;20527;-69
2023/09/23 02:56:55;;;;;;;2.17;0.50;;;22.90;45.70;;;;;;5056114;28;20431;-69
2023/09/23 02:59:26;;;;;;;1.83;0.40;;;22.50;46.10;;;;;;5053519;28;20025;-69
2023/09/23 03:01:53;;;;;;;3.85;0.63;;;22.20;47.30;;;;;;5063260;28;20017;-69
2023/09/23 03:04:24;;;;;;;4.93;0.88;;;21.70;47.70;;;;;;5052276;28;20164;-69
2023/09/23 03:06:56;;;;;;;1.98;0.75;;;21.70;48.70;;;;;;5045149;28;20068;-69
2023/09/23 03:09:25;;;;;;;6.25;1.10;;;21.70;48.90;;;;;;5054575;28;20492;-68
2023/09/23 03:11:56;;;;;;;3.13;0.60;;;21.70;49.60;;;;;;5054907;28;20073;-69
2023/09/23 03:14:30;;;;;;;6.82;0.90;;;21.80;49.50;;;;;;5050099;28;20382;-69
2023/09/23 03:16:57;;;;;;;1.92;0.77;;;21.70;49.80;;;;;;5055368;28;20025;-69
2023/09/23 03:19:25;;;;;;;3.50;1.08;;;21.50;49.40;;;;;;5059337;28;20032;-69
2023/09/23 03:21:56;;;;;;;3.85;0.98;;;21.60;50.10;;;;;;5054934;28;20569;-69
2023/09/23 03:24:28;;;;;;;4.35;1.23;;;21.50;50.60;;;;;;5053632;28;20091;-68
2023/09/23 03:27:00;;;;;;;3.42;0.90;;;21.50;50.20;;;;;;5058941;28;20027;-68
2023/09/23 03:29:29;;;;;;;8.10;0.98;;;21.30;50.80;;;;;;5053127;28;20108;-69
2023/09/23 03:31:58;;;;;;;5.20;1.00;;;21.20;50.90;;;;;;5053146;28;20029;-68
2023/09/23 03:34:34;;;;;;;5.45;0.98;;;21.20;51.40;;;;;;5055221;28;20032;-69
2023/09/23 03:37:04;;;;;;;3.50;1.08;;;21.40;51.40;;;;;;5059828;28;20050;-67
2023/09/23 03:39:31;;;;;;;6.47;1.13;;;21.60;50.40;;;;;;5054081;28;21099;-67
2023/09/23 03:41:59;;;;;;;3.95;0.80;;;21.80;51.40;;;;;;5057675;28;20478;-68
2023/09/23 03:44:26;;;;;;;3.75;0.80;;;21.80;50.80;;;;;;5060132;28;20016;-68
2023/09/23 03:46:54;;;;;;;2.22;0.80;;;21.80;50.40;;;;;;5058608;28;20028;-68
2023/09/23 03:49:22;;;;;;;1.42;0.70;;;21.70;50.10;;;;;;5047996;28;20506;-68
2023/09/23 03:51:49;;;;;;;2.90;0.70;;;21.60;49.80;;;;;;5056690;28;20037;-67
2023/09/23 03:54:17;;;;;;;4.47;0.75;;;21.40;50.10;;;;;;5055171;28;20394;-67
2023/09/23 03:56:54;;;;;;;5.28;0.90;;;21.40;50.90;;;;;;5054587;28;20069;-69
2023/09/23 03:59:22;;;;;;;7.90;1.27;;;21.60;51.20;;;;;;5058503;28;20067;-68
2023/09/23 04:01:50;;;;;;;2.47;0.73;;;21.70;51.40;;;;;;5057682;28;20068;-68
2023/09/23 04:04:18;;;;;;;6.10;0.90;;;21.70;50.90;;;;;;5061862;28;20028;-69
2023/09/23 04:06:45;;;;;;;4.25;0.95;;;21.70;50.50;;;;;;5060053;28;20368;-67
2023/09/23 04:09:13;;;;;;;2.92;0.73;;;21.60;51.30;;;;;;5057351;28;20071;-67
2023/09/23 04:11:40;;;;;;;6.35;1.10;;;21.50;51.80;;;;;;5063155;28;20492;-66
2023/09/23 04:14:07;;;;;;;3.80;1.10;;;21.50;51.40;;;;;;5059760;28;20032;-68
2023/09/23 04:16:35;;;;;;;7.40;1.33;;;21.70;51.00;;;;;;5062471;28;20028;-68
2023/09/23 04:19:05;;;;;;;4.28;0.80;;;21.80;50.50;;;;;;5058840;28;20428;-68
2023/09/23 04:21:33;;;;;;;4.00;0.95;;;22.10;51.10;;;;;;5058899;28;20037;-67
2023/09/23 04:24:01;;;;;;;8.02;0.88;;;22.10;50.40;;;;;;5061343;28;20099;-67
2023/09/23 04:26:31;;;;;;;4.15;1.00;;;22.10;50.20;;;;;;5062849;28;20040;-67
2023/09/23 04:28:59;;;;;;;5.80;1.40;;;22.20;49.70;;;;;;5054121;28;20029;-66
2023/09/23 04:31:28;;;;;;;3.53;0.80;;;22.10;49.60;;;;;;5061162;28;20029;-67
2023/09/23 04:33:55;;;;;;;4.28;0.60;;;22.10;49.90;;;;;;5059655;28;20035;-67
2023/09/23 04:36:22;;;;;;;5.18;0.93;;;22.00;50.30;;;;;;5057144;28;20053;-68
2023/09/23 04:38:50;;;;;;;3.47;0.70;;;21.90;50.60;;;;;;5056842;28;20112;-67
2023/09/23 04:41:17;;;;;;;4.93;0.80;;;21.90;49.80;;;;;;5064261;28;20032;-67
2023/09/23 04:43:45;;;;;;;2.50;0.90;;;21.80;49.80;;;;;;5059447;28;20572;-67
2023/09/23 04:46:14;;;;;;;2.35;1.25;;;21.80;50.30;;;;;;5055566;28;20041;-68
2023/09/23 04:48:45;;;;;;;7.07;1.15;;;21.90;50.30;;;;;;5055238;28;20124;-68
2023/09/23 04:51:12;;;;;;;3.40;0.68;;;22.00;49.90;;;;;;5055082;28;20040;-69
2023/09/23 04:53:40;;;;;;;3.35;0.80;;;22.00;49.60;;;;;;5060864;28;20032;-68
2023/09/23 04:56:12;;;;;;;4.05;1.05;;;22.40;49.20;;;;;;5058483;28;20461;-69
2023/09/23 04:58:39;;;;;;;2.85;0.65;;;22.70;48.80;;;;;;5055331;28;20021;-67
2023/09/23 05:01:07;;;;;;;1.55;0.63;;;22.60;48.70;;;;;;5060732;28;20032;-71
2023/09/23 05:03:36;;;;;;;6.60;0.82;;;22.40;48.10;;;;;;5057479;28;20162;-68
2023/09/23 05:06:05;;;;;;;3.80;0.93;;;22.20;49.00;;;;;;5057615;28;20076;-69
2023/09/23 05:08:33;;;;;;;2.45;0.57;;;22.00;50.00;;;;;;5057682;28;20151;-67
2023/09/23 05:11:01;;;;;;;4.70;0.80;;;21.70;49.20;;;;;;5049821;28;20029;-68
2023/09/23 05:13:29;;;;;;;4.18;0.90;;;21.70;49.80;;;;;;5052494;28;20024;-69
2023/09/23 05:15:57;;;;;;;4.30;0.95;;;21.60;49.50;;;;;;5053006;28;20028;-67
2023/09/23 05:18:24;;;;;;;2.70;0.85;;;21.80;49.00;;;;;;5056663;28;20020;-70
2023/09/23 05:20:52;;;;;;;2.60;0.55;;;21.70;49.10;;;;;;5047839;28;20025;-69
2023/09/23 05:23:23;;;;;;;3.35;0.63;;;21.70;50.00;;;;;;5056340;28;20065;-69
2023/09/23 05:25:50;;;;;;;1.38;0.50;;;21.90;50.00;;;;;;5057652;28;20076;-68
2023/09/23 05:28:18;;;;;;;4.70;0.45;;;22.10;48.60;;;;;;5056053;28;20530;-67
2023/09/23 05:30:46;;;;;;;1.67;0.73;;;22.20;49.00;;;;;;5050373;28;20036;-67
2023/09/23 05:33:15;;;;;;;2.88;0.73;;;22.10;48.40;;;;;;5052665;28;20029;-68
2023/09/23 05:35:42;;;;;;;4.88;0.73;;;22.00;48.90;;;;;;5058201;28;20112;-67
2023/09/23 05:38:09;;;;;;;4.28;1.13;;;22.00;48.90;;;;;;5059042;28;20033;-66
2023/09/23 05:40:37;;;;;;;3.03;1.15;;;22.10;48.80;;;;;;5061525;28;20060;-68
2023/09/23 05:43:05;;;;;;;2.45;0.60;;;22.00;48.80;;;;;;5053271;28;20032;-68
2023/09/23 05:45:35;;;;;;;1.40;0.57;;;22.10;49.10;;;;;;5055823;28;20473;-67
2023/09/23 05:48:04;;;;;;;1.35;0.75;;;22.20;49.30;;;;;;5052031;28;20142;-68
2023/09/23 05:50:32;;;;;;;3.70;0.70;;;22.30;48.10;;;;;;5054358;28;20028;-67
2023/09/23 05:52:59;;;;;;;2.65;0.50;;;22.50;48.50;;;;;;5062306;28;20029;-68
2023/09/23 05:55:27;;;;;;;2.90;0.90;;;22.30;48.40;;;;;;5055009;28;20060;-69
2023/09/23 05:57:55;;;;;;;2.13;0.60;;;22.20;49.00;;;;;;5056466;28;20030;-68
2023/09/23 06:00:22;;;;;;;4.60;1.00;;;22.20;47.70;;;;;;5057501;28;20029;-69
2023/09/23 06:02:50;;;;;;;3.30;0.80;;;21.90;48.80;;;;;;5056676;28;20050;-68
2023/09/23 06:05:18;;;;;;;2.40;0.82;;;21.70;48.80;;;;;;5052328;28;20045;-68
2023/09/23 06:07:48;;;;;;;2.92;0.88;;;21.70;49.30;;;;;;5057300;28;20478;-67
2023/09/23 06:10:15;;;;;;;2.53;0.80;;;21.50;49.60;;;;;;5060404;28;20029;-68
2023/09/23 06:12:42;;;;;;;3.65;0.70;;;21.50;50.40;;;;;;5054692;28;20024;-69
2023/09/23 06:15:10;;;;;;;3.03;1.00;;;21.60;50.70;;;;;;5058205;28;20020;-67
2023/09/23 06:17:38;;;;;;;2.97;0.80;;;21.50;49.80;;;;;;5058656;28;20025;-68
2023/09/23 06:20:06;;;;;;;3.38;0.63;;;21.60;49.80;;;;;;5058972;28;20031;-67
2023/09/23 06:22:35;;;;;;;4.18;0.80;;;21.40;50.10;;;;;;5055123;28;20105;-68
2023/09/23 06:25:02;;;;;;;2.97;0.57;;;21.30;50.70;;;;;;5055266;28;20086;-68
2023/09/23 06:27:30;;;;;;;3.55;0.90;;;21.20;51.00;;;;;;5057769;28;20021;-67
2023/09/23 06:29:57;;;;;;;2.78;0.68;;;21.20;51.00;;;;;;5047893;28;20033;-67
2023/09/23 06:32:24;;;;;;;3.78;0.75;;;21.00;51.60;;;;;;5057059;28;20480;-67
2023/09/23 06:34:52;;;;;;;5.05;0.68;;;20.90;51.70;;;;;;5057752;28;20070;-68
2023/09/23 06:37:19;;;;;;;3.08;0.57;;;21.00;52.00;;;;;;5058020;28;20029;-69
2023/09/23 06:39:46;;;;;;;2.75;0.93;;;20.90;52.00;;;;;;5055154;28;20017;-69
2023/09/23 06:42:15;;;;;;;1.73;0.45;;;20.90;52.00;;;;;;5063877;28;20524;-68
2023/09/23 06:44:42;;;;;;;2.75;0.70;;;21.00;51.60;;;;;;5056638;28;20045;-69
2023/09/23 06:47:13;;;;;;;3.58;0.60;;;21.00;52.00;;;;;;5051448;28;20032;-69
2023/09/23 06:49:40;;;;;;;1.70;0.50;;;20.90;51.50;;;;;;5052467;28;20037;-69
2023/09/23 06:52:08;;;;;;;2.67;0.57;;;20.80;52.10;;;;;;5053850;28;20037;-68
2023/09/23 06:54:38;;;;;;;3.38;0.60;;;20.70;52.40;;;;;;5056272;28;20186;-69
2023/09/23 06:57:06;;;;;;;2.30;0.75;;;20.60;52.90;;;;;;5057487;28;20024;-68
2023/09/23 06:59:33;;;;;;;5.15;0.52;;;20.40;53.20;;;;;;5059094;28;20028;-68
2023/09/23 07:02:00;;;;;;;3.65;0.60;;;20.20;53.40;;;;;;5050676;28;20028;-69
2023/09/23 07:04:28;;;;;;;2.38;0.50;;;20.10;54.10;;;;;;5050357;28;20104;-69
2023/09/23 07:06:56;;;;;;;2.00;0.50;;;19.90;54.40;;;;;;5051281;28;20068;-68
2023/09/23 07:09:23;;;;;;;3.88;0.70;;;19.70;54.80;;;;;;5055331;28;20029;-68
2023/09/23 07:11:51;;;;;;;4.55;0.77;;;19.50;55.20;;;;;;5065768;28;20095;-68
2023/09/23 07:14:18;;;;;;;2.10;0.80;;;19.50;55.50;;;;;;5050232;28;20063;-68
2023/09/23 07:16:45;;;;;;;2.25;0.45;;;19.40;55.80;;;;;;5048450;28;20025;-68
2023/09/23 07:19:13;;;;;;;4.50;0.73;;;19.30;55.90;;;;;;5046124;28;20060;-68
2023/09/23 07:21:40;;;;;;;2.10;0.60;;;19.20;56.60;;;;;;5070004;28;20051;-69
2023/09/23 07:24:08;;;;;;;2.17;0.50;;;19.10;56.90;;;;;;5068480;28;20060;-69
2023/09/23 07:26:35;;;;;;;7.40;0.50;;;18.90;57.50;;;;;;5060749;28;20044;-69
2023/09/23 07:29:02;;;;;;;2.63;0.68;;;19.00;57.60;;;;;;5055347;28;20601;-69
2023/09/23 07:31:30;;;;;;;4.13;0.52;;;18.90;57.70;;;;;;5048717;28;20043;-68
2023/09/23 07:33:57;;;;;;;6.25;0.45;;;18.90;57.80;;;;;;5065908;28;20020;-68
2023/09/23 07:36:25;;;;;;;3.03;0.65;;;18.90;57.90;;;;;;5051363;28;20078;-69
2023/09/23 07:38:52;;;;;;;4.85;0.68;;;18.90;58.00;;;;;;5049423;28;20171;-68
2023/09/23 07:41:19;;;;;;;4.15;0.55;;;18.60;58.60;;;;;;5052736;28;20068;-68
2023/09/23 07:43:48;;;;;;;4.03;0.57;;;18.60;58.90;;;;;;5053815;28;20410;-69
2023/09/23 07:46:15;;;;;;;4.45;0.60;;;18.60;59.10;;;;;;5058611;28;20037;-68
2023/09/23 07:48:43;;;;;;;1.65;0.50;;;18.40;59.50;;;;;;5052491;28;20405;-68
2023/09/23 07:51:12;;;;;;;6.20;0.77;;;18.40;59.50;;;;;;5059927;28;20024;-67
2023/09/23 07:53:39;;;;;;;3.85;0.60;;;18.20;60.10;;;;;;5056619;28;20036;-68
2023/09/23 07:56:06;;;;;;;4.30;0.60;;;18.10;60.60;;;;;;5054222;28;20075;-69
2023/09/23 07:58:34;;;;;;;3.67;1.17;;;17.90;61.00;;;;;;5059453;28;20025;-68
2023/09/23 08:01:01;;;;;;;2.92;0.73;;;18.00;61.00;;;;;;5054539;28;20076;-68
2023/09/23 08:03:28;;;;;;;5.25;0.75;;;17.90;61.40;;;;;;5054100;28;20427;-68
2023/09/23 08:05:56;;;;;;;6.82;1.50;;;17.80;61.60;;;;;;5055710;28;20471;-69
2023/09/23 08:08:23;;;;;;;18.42;1.60;;;17.80;61.80;;;;;;5059039;28;20035;-67
2023/09/23 08:10:51;;;;;;;10.57;1.15;;;17.70;62.20;;;;;;5058269;28;20025;-68
2023/09/23 08:13:20;;;;;;;6.03;1.08;;;17.60;62.40;;;;;;5058731;28;20533;-67
2023/09/23 08:15:48;;;;;;;7.47;1.13;;;17.60;62.40;;;;;;5056595;28;20461;-67
2023/09/23 08:18:15;;;;;;;11.05;1.02;;;17.50;62.70;;;;;;5055554;28;20057;-68
2023/09/23 08:20:43;;;;;;;7.90;1.08;;;17.60;63.10;;;;;;5055804;28;20112;-68
2023/09/23 08:23:10;;;;;;;3.08;0.80;;;17.60;63.20;;;;;;5056145;28;20052;-69
2023/09/23 08:25:38;;;;;;;5.78;0.95;;;17.70;62.80;;;;;;5056253;28;20068;-69
2023/09/23 08:28:05;;;;;;;3.13;0.60;;;17.60;63.00;;;;;;5053985;28;20478;-69
2023/09/23 08:30:32;;;;;;;2.50;0.40;;;17.50;63.30;;;;;;5056673;28;20528;-69
2023/09/23 08:33:00;;;;;;;5.10;0.63;;;17.60;63.30;;;;;;5063191;28;20078;-67
2023/09/23 08:35:28;;;;;;;3.90;0.90;;;17.50;63.60;;;;;;5062811;28;20036;-68
2023/09/23 08:37:56;;;;;;;2.65;0.63;;;17.40;64.30;;;;;;5059572;28;20028;-67
2023/09/23 08:40:23;;;;;;;3.63;0.63;;;17.40;64.50;;;;;;5056578;28;20088;-67
2023/09/23 08:42:53;;;;;;;1.92;0.38;;;17.40;65.00;;;;;;5050780;28;20437;-68
2023/09/23 08:45:26;;;;;;;4.25;0.85;;;17.40;65.00;;;;;;5050031;28;20073;-70
2023/09/23 08:47:55;;;;;;;2.13;0.50;;;17.30;65.00;;;;;;5056719;28;20039;-69
2023/09/23 08:50:24;;;;;;;1.92;0.60;;;17.30;65.50;;;;;;5058812;28;20025;-68
2023/09/23 08:52:55;;;;;;;2.35;0.55;;;17.20;65.80;;;;;;5055135;28;20041;-68
2023/09/23 08:55:24;;;;;;;2.75;0.52;;;17.20;66.20;;;;;;5052562;28;20044;-68
2023/09/23 08:57:52;;;;;;;1.98;0.45;;;17.30;66.00;;;;;;5063471;28;20552;-68
2023/09/23 09:00:20;;;;;;;2.08;0.80;;;17.20;66.20;;;;;;5059965;28;20017;-69
2023/09/23 09:02:50;;;;;;;2.88;0.73;;;17.20;66.80;;;;;;5050048;28;20032;-67
2023/09/23 09:05:19;;;;;;;2.60;0.60;;;17.20;67.30;;;;;;5055627;28;20123;-68
2023/09/23 09:07:47;;;;;;;2.40;0.50;;;17.10;67.40;;;;;;5052501;28;20053;-68
2023/09/23 09:10:15;;;;;;;4.75;0.70;;;17.10;67.70;;;;;;5054126;28;20030;-68
2023/09/23 09:12:42;;;;;;;2.13;0.90;;;17.10;68.00;;;;;;5054681;28;20408;-67
2023/09/23 09:15:10;;;;;;;7.63;1.65;;;17.10;68.20;;;;;;5054250;28;20071;-68
2023/09/23 09:17:38;;;;;;;9.80;2.80;;;17.00;68.40;;;;;;5053356;28;20025;-68
2023/09/23 09:20:09;;;;;;;6.10;1.85;;;17.00;68.90;;;;;;5056836;28;20068;-68
2023/09/23 09:22:38;;;;;;;3.78;1.35;;;16.90;69.20;;;;;;5055639;28;20409;-68
2023/09/23 09:25:11;;;;;;;5.15;1.20;;;16.80;70.00;;;;;;5055181;28;20052;-68
2023/09/23 09:27:39;;;;;;;3.45;0.93;;;16.70;70.30;;;;;;5053498;28;20025;-68
2023/09/23 09:30:11;;;;;;;5.05;1.10;;;16.80;70.50;;;;;;5055941;28;20028;-67
2023/09/23 09:32:42;;;;;;;6.00;1.52;;;16.70;70.80;;;;;;5054818;28;20083;-68
2023/09/23 09:35:19;;;;;;;2.58;0.93;;;16.80;71.10;;;;;;5055845;28;20460;-66
2023/09/23 09:37:48;;;;;;;3.10;1.13;;;16.70;71.20;;;;;;5058710;28;20104;-67
2023/09/23 09:40:23;;;;;;;3.88;1.25;;;16.70;71.20;;;;;;5062310;28;20390;-66
2023/09/23 09:42:55;;;;;;;4.45;1.00;;;16.60;71.80;;;;;;5056191;28;20119;-68
2023/09/23 09:45:23;;;;;;;3.95;1.70;;;16.50;72.80;;;;;;5058693;28;20045;-68
2023/09/23 09:47:57;;;;;;;5.32;1.25;;;16.20;73.40;;;;;;5058843;28;20116;-67
2023/09/23 09:50:26;;;;;;;2.35;1.00;;;16.10;74.00;;;;;;5059752;28;20086;-67
2023/09/23 09:52:53;;;;;;;3.15;1.23;;;15.90;74.30;;;;;;5058058;28;20041;-69
2023/09/23 09:55:24;;;;;;;4.75;1.42;;;15.80;74.90;;;;;;5059362;28;20024;-68
2023/09/23 09:57:55;;;;;;;4.60;1.58;;;15.70;75.80;;;;;;5055288;28;20800;-69
2023/09/23 10:03:08;;;;;;;9.02;2.20;;;15.60;76.80;;;;;;5058176;28;20475;-69
2023/09/23 10:05:42;;;;;;;3.63;1.35;;;15.70;77.10;;;;;;5061949;28;20478;-69
2023/09/23 10:08:15;;;;;;;6.65;2.10;;;15.80;77.30;;;;;;5056498;28;20120;-69
2023/09/23 10:10:50;;;;;;;6.15;1.95;;;15.80;77.10;;;;;;5053483;28;20102;-68
2023/09/23 10:13:25;;;;;;;4.93;1.55;;;15.90;77.30;;;;;;5037341;28;20032;-68
2023/09/23 10:16:02;;;;;;;7.03;2.45;;;15.90;77.40;;;;;;5050619;28;20033;-71
2023/09/23 10:18:39;;;;;;;6.40;2.75;;;16.00;77.70;;;;;;5056435;28;20561;-69
2023/09/23 10:21:08;;;;;;;4.90;2.38;;;16.00;77.40;;;;;;5057581;28;20132;-66
2023/09/23 10:23:41;;;;;;;5.53;1.88;;;16.00;77.70;;;;;;5051728;28;20048;-67
2023/09/23 10:26:18;;;;;;;9.05;1.98;;;16.10;78.10;;;;;;5053754;28;20051;-67
2023/09/23 10:28:57;;;;;;;;;;;16.10;78.10;;;;;;5054762;28;20124;-67
2023/09/23 10:31:28;;;;;;;;;;;16.10;78.10;;;;;;5052536;28;19905;-66
2023/09/23 10:33:56;;;;;;;2.85;1.33;;;16.10;78.20;;;;;;5055178;28;19957;-69
2023/09/23 10:36:24;;;;;;;5.95;1.58;;;16.10;78.00;;;;;;5049446;28;20029;-68
2023/09/23 10:38:51;;;;;;;6.03;1.52;;;16.10;79.30;;;;;;5057263;28;20024;-68
2023/09/23 10:41:19;;;;;;;3.20;1.40;;;16.10;78.10;;;;;;5063724;28;20372;-68
2023/09/23 10:43:55;;;;;;;2.13;1.10;;;16.10;78.10;;;;;;5062647;28;20083;-70
2023/09/23 10:46:23;;;;;;;5.47;1.42;;;16.00;78.50;;;;;;5052774;28;20597;-70
2023/09/23 10:48:50;;;;;;;5.13;1.40;;;15.90;78.50;;;;;;5062018;28;20142;-70
2023/09/23 10:51:18;;;;;;;3.13;1.20;;;16.10;78.00;;;;;;5058062;28;20020;-68
2023/09/23 10:53:45;;;;;;;5.60;1.42;;;16.00;77.60;;;;;;5055860;28;20359;-68
2023/09/23 10:56:13;;;;;;;4.15;1.05;;;15.90;77.90;;;;;;5055364;28;20362;-69
2023/09/23 10:58:40;;;;;;;6.28;1.40;;;15.90;78.30;;;;;;5058353;28;20020;-69
2023/09/23 11:01:08;;;;;;;4.88;1.13;;;15.90;78.70;;;;;;5053145;28;20090;-68
2023/09/23 11:03:42;;;;;;;6.78;1.50;;;15.90;79.00;;;;;;5055435;28;20056;-68
2023/09/23 11:06:09;;;;;;;5.75;1.45;;;15.90;78.80;;;;;;5060042;28;20037;-69
2023/09/23 11:08:39;;;;;;;2.58;1.23;;;15.80;78.80;;;;;;5059702;28;20060;-68
2023/09/23 11:11:11;;;;;;;6.47;1.50;;;15.70;79.00;;;;;;5056672;28;20021;-68
2023/09/23 11:13:39;;;;;;;6.90;1.55;;;15.70;79.40;;;;;;5056319;28;20083;-69
2023/09/23 11:16:10;;;;;;;8.55;3.13;;;15.70;79.80;;;;;;5059656;28;20021;-68
2023/09/23 11:18:38;;;;;;;8.15;3.25;;;15.60;80.10;;;;;;5054445;28;20350;-68
2023/09/23 11:21:06;;;;;;;8.65;4.03;;;15.60;80.10;;;;;;5060385;28;20060;-68
2023/09/23 11:23:34;;;;;;;10.43;5.03;;;15.60;79.80;;;;;;5061980;28;20053;-69
2023/09/23 11:26:02;;;;;;;11.52;5.18;;;15.50;80.30;;;;;;5054685;28;20040;-68
2023/09/23 11:28:29;;;;;;;15.98;6.90;;;15.40;80.10;;;;;;5054960;28;20032;-70
2023/09/23 11:30:57;;;;;;;15.52;6.22;;;15.30;80.60;;;;;;5056534;28;20032;-67
2023/09/23 11:33:25;;;;;;;13.52;5.70;;;15.20;81.30;;;;;;5053821;28;20021;-69
2023/09/23 11:35:54;;;;;;;13.10;6.38;;;15.20;81.30;;;;;;5058178;28;20043;-68
2023/09/23 11:38:21;;;;;;;15.55;6.30;;;15.10;81.70;;;;;;5052641;28;20028;-69
2023/09/23 11:40:49;;;;;;;16.15;6.93;;;15.00;82.00;;;;;;5051040;28;20059;-69
2023/09/23 11:43:16;;;;;;;17.10;6.75;;;15.00;82.70;;;;;;5053204;28;20035;-71
2023/09/23 11:45:43;;;;;;;17.83;7.03;;;14.90;82.60;;;;;;5053929;28;20071;-69
2023/09/23 11:48:12;;;;;;;18.40;7.70;;;14.90;82.70;;;;;;5053537;28;20017;-68
2023/09/23 11:50:39;;;;;;;16.23;7.40;;;14.90;82.90;;;;;;5058178;28;20031;-70
2023/09/23 11:53:07;;;;;;;14.45;6.97;;;14.80;82.80;;;;;;5057466;28;20071;-70
2023/09/23 11:55:34;;;;;;;15.88;7.28;;;14.70;83.00;;;;;;5048202;28;20029;-71
2023/09/23 11:58:03;;;;;;;15.02;7.15;;;14.70;83.80;;;;;;5055377;28;20119;-70
2023/09/23 12:00:31;;;;;;;15.45;7.05;;;14.80;84.10;;;;;;5056007;28;20037;-70
2023/09/23 12:02:59;;;;;;;11.90;6.25;;;14.90;83.20;;;;;;5049011;28;20025;-70
2023/09/23 12:05:29;;;;;;;15.93;6.72;;;14.90;83.00;;;;;;5051378;28;20049;-70
2023/09/23 12:07:58;;;;;;;17.17;6.25;;;14.60;83.30;;;;;;5052155;28;20556;-70
2023/09/23 12:10:29;;;;;;;17.85;5.90;;;14.50;84.60;;;;;;5054949;28;20029;-67
2023/09/23 12:13:02;;;;;;;9.45;4.60;;;14.40;84.70;;;;;;5053030;28;20033;-71
2023/09/23 12:15:30;;;;;;;11.68;4.82;;;14.30;84.70;;;;;;5056953;28;20474;-70
2023/09/23 12:17:57;;;;;;;10.85;5.32;;;14.20;85.10;;;;;;5053586;28;20039;-71
2023/09/23 12:20:25;;;;;;;13.10;5.78;;;14.10;85.40;;;;;;5054186;28;20471;-70
2023/09/23 12:22:53;;;;;;;12.38;5.47;;;14.00;86.00;;;;;;5058049;28;20063;-71
2023/09/23 12:25:20;;;;;;;18.05;5.97;;;14.00;85.90;;;;;;5057261;28;20052;-71
2023/09/23 12:27:48;;;;;;;12.05;5.60;;;13.90;86.20;;;;;;5053545;28;20053;-70
2023/09/23 12:30:17;;;;;;;10.95;5.28;;;13.70;87.00;;;;;;5068563;28;20025;-69
2023/09/23 12:32:45;;;;;;;7.10;3.67;;;13.70;87.40;;;;;;5061770;28;20024;-69
2023/09/23 12:35:12;;;;;;;9.60;3.58;;;13.60;87.50;;;;;;5060578;28;20032;-69
2023/09/23 12:37:40;;;;;;;11.70;3.90;;;13.50;87.90;;;;;;5061154;28;20075;-68
2023/09/23 12:40:08;;;;;;;10.23;3.38;;;13.50;88.00;;;;;;5068407;28;20024;-69
2023/09/23 12:42:35;;;;;;;7.93;3.30;;;13.40;87.70;;;;;;5061705;28;20032;-68
2023/09/23 12:45:02;;;;;;;9.00;3.55;;;13.30;88.60;;;;;;5062165;28;20037;-68
2023/09/23 12:47:30;;;;;;;9.32;3.35;;;13.40;88.70;;;;;;5064632;28;20035;-68
2023/09/23 12:49:57;;;;;;;7.05;2.88;;;13.20;88.90;;;;;;5064039;28;20738;-68
2023/09/23 12:52:25;;;;;;;8.45;3.58;;;13.10;89.20;;;;;;5063553;28;20028;-68
2023/09/23 12:54:52;;;;;;;7.10;3.40;;;13.10;89.50;;;;;;5061436;28;20018;-69